sensor_id;sensor_type;location;lat;lon;timestamp;P1;durP1;ratioP1;P2;durP2;ratioP2
51854;SDS011;37895;53.240;6.572;2023-08-08T00:01:50;4.30;;;2.97;;
51854;SDS011;37895;53.240;6.572;2023-08-08T00:04:16;8.40;;;3.13;;
51854;SDS011;37895;53.240;6.572;2023-08-08T00:06:42;6.40;;;3.17;;
51854;SDS011;37895;53.240;6.572;2023-08-08T00:09:07;7.60;;;3.40;;
51854;SDS011;37895;53.240;6.572;2023-08-08T00:11:33;5.18;;;3.22;;
51854;SDS011;37895;53.240;6.572;2023-08-08T00:13:59;5.10;;;3.38;;
51854;SDS011;37895;53.240;6.572;2023-08-08T00:16:24;6.43;;;3.53;;
51854;SDS011;37895;53.240;6.572;2023-08-08T00:18:50;5.13;;;3.22;;
51854;SDS011;37895;53.240;6.572;2023-08-08T00:21:18;7.47;;;3.28;;
51854;SDS011;37895;53.240;6.572;2023-08-08T00:26:10;6.72;;;3.00;;
51854;SDS011;37895;53.240;6.572;2023-08-08T00:28:36;7.25;;;3.20;;
51854;SDS011;37895;53.240;6.572;2023-08-08T00:31:01;7.15;;;2.92;;
51854;SDS011;37895;53.240;6.572;2023-08-08T00:33:27;4.65;;;2.92;;
51854;SDS011;37895;53.240;6.572;2023-08-08T00:38:19;7.20;;;3.15;;
51854;SDS011;37895;53.240;6.572;2023-08-08T00:40:44;5.18;;;3.50;;
51854;SDS011;37895;53.240;6.572;2023-08-08T00:43:10;8.32;;;4.03;;
51854;SDS011;37895;53.240;6.572;2023-08-08T00:45:36;10.23;;;3.38;;
51854;SDS011;37895;53.240;6.572;2023-08-08T00:50:28;7.07;;;3.50;;
51854;SDS011;37895;53.240;6.572;2023-08-08T00:52:54;8.45;;;3.95;;
51854;SDS011;37895;53.240;6.572;2023-08-08T00:55:20;7.97;;;3.60;;
51854;SDS011;37895;53.240;6.572;2023-08-08T00:57:47;6.70;;;3.53;;
51854;SDS011;37895;53.240;6.572;2023-08-08T01:00:13;5.68;;;3.80;;
51854;SDS011;37895;53.240;6.572;2023-08-08T01:02:38;7.38;;;3.60;;
51854;SDS011;37895;53.240;6.572;2023-08-08T01:05:04;9.27;;;3.67;;
51854;SDS011;37895;53.240;6.572;2023-08-08T01:07:46;8.27;;;3.60;;
51854;SDS011;37895;53.240;6.572;2023-08-08T01:10:29;7.20;;;3.53;;
51854;SDS011;37895;53.240;6.572;2023-08-08T01:13:02;6.38;;;3.92;;
51854;SDS011;37895;53.240;6.572;2023-08-08T01:15:31;6.22;;;3.67;;
51854;SDS011;37895;53.240;6.572;2023-08-08T01:18:04;6.75;;;3.72;;
51854;SDS011;37895;53.240;6.572;2023-08-08T01:20:31;5.43;;;3.60;;
51854;SDS011;37895;53.240;6.572;2023-08-08T01:28:23;5.63;;;3.10;;
51854;SDS011;37895;53.240;6.572;2023-08-08T01:30:49;9.00;;;4.13;;
51854;SDS011;37895;53.240;6.572;2023-08-08T01:33:15;5.55;;;3.15;;
51854;SDS011;37895;53.240;6.572;2023-08-08T01:35:42;6.07;;;3.80;;
51854;SDS011;37895;53.240;6.572;2023-08-08T01:40:38;5.95;;;3.63;;
51854;SDS011;37895;53.240;6.572;2023-08-08T01:43:08;6.25;;;3.58;;
51854;SDS011;37895;53.240;6.572;2023-08-08T01:45:34;9.18;;;3.67;;
51854;SDS011;37895;53.240;6.572;2023-08-08T01:48:05;6.22;;;3.78;;
51854;SDS011;37895;53.240;6.572;2023-08-08T01:50:34;10.10;;;4.00;;
51854;SDS011;37895;53.240;6.572;2023-08-08T01:53:00;6.28;;;3.50;;
51854;SDS011;37895;53.240;6.572;2023-08-08T01:55:26;5.72;;;3.10;;
51854;SDS011;37895;53.240;6.572;2023-08-08T01:57:52;5.55;;;3.60;;
51854;SDS011;37895;53.240;6.572;2023-08-08T02:00:18;9.95;;;3.53;;
51854;SDS011;37895;53.240;6.572;2023-08-08T02:02:43;7.13;;;3.40;;
51854;SDS011;37895;53.240;6.572;2023-08-08T02:05:09;7.47;;;3.20;;
51854;SDS011;37895;53.240;6.572;2023-08-08T02:07:35;6.15;;;3.33;;
51854;SDS011;37895;53.240;6.572;2023-08-08T02:10:00;7.82;;;3.45;;
51854;SDS011;37895;53.240;6.572;2023-08-08T02:12:26;6.60;;;3.80;;
51854;SDS011;37895;53.240;6.572;2023-08-08T02:14:53;7.45;;;3.20;;
51854;SDS011;37895;53.240;6.572;2023-08-08T02:17:20;5.60;;;3.05;;
51854;SDS011;37895;53.240;6.572;2023-08-08T02:19:46;8.25;;;3.85;;
51854;SDS011;37895;53.240;6.572;2023-08-08T02:22:11;6.20;;;3.30;;
51854;SDS011;37895;53.240;6.572;2023-08-08T02:24:37;6.60;;;3.67;;
51854;SDS011;37895;53.240;6.572;2023-08-08T02:27:03;7.63;;;3.80;;
51854;SDS011;37895;53.240;6.572;2023-08-08T02:31:55;7.65;;;3.35;;
51854;SDS011;37895;53.240;6.572;2023-08-08T02:34:20;11.18;;;4.05;;
51854;SDS011;37895;53.240;6.572;2023-08-08T02:36:46;6.57;;;3.15;;
51854;SDS011;37895;53.240;6.572;2023-08-08T02:48:23;6.40;;;4.00;;
51854;SDS011;37895;53.240;6.572;2023-08-08T02:50:48;10.55;;;4.00;;
51854;SDS011;37895;53.240;6.572;2023-08-08T02:53:14;7.10;;;3.10;;
51854;SDS011;37895;53.240;6.572;2023-08-08T02:55:40;7.93;;;3.58;;
51854;SDS011;37895;53.240;6.572;2023-08-08T02:58:05;8.60;;;3.45;;
51854;SDS011;37895;53.240;6.572;2023-08-08T03:00:33;8.55;;;3.63;;
51854;SDS011;37895;53.240;6.572;2023-08-08T03:02:59;7.38;;;3.85;;
51854;SDS011;37895;53.240;6.572;2023-08-08T03:05:25;7.40;;;3.30;;
51854;SDS011;37895;53.240;6.572;2023-08-08T03:07:50;8.73;;;3.33;;
51854;SDS011;37895;53.240;6.572;2023-08-08T03:10:16;5.57;;;3.45;;
51854;SDS011;37895;53.240;6.572;2023-08-08T03:12:41;8.38;;;3.80;;
51854;SDS011;37895;53.240;6.572;2023-08-08T03:15:07;8.95;;;3.25;;
51854;SDS011;37895;53.240;6.572;2023-08-08T03:17:33;6.13;;;3.28;;
51854;SDS011;37895;53.240;6.572;2023-08-08T03:22:25;5.63;;;3.33;;
51854;SDS011;37895;53.240;6.572;2023-08-08T03:24:51;5.95;;;2.92;;
51854;SDS011;37895;53.240;6.572;2023-08-08T03:27:16;6.88;;;2.95;;
51854;SDS011;37895;53.240;6.572;2023-08-08T03:29:42;9.10;;;3.15;;
51854;SDS011;37895;53.240;6.572;2023-08-08T03:32:07;7.82;;;3.28;;
51854;SDS011;37895;53.240;6.572;2023-08-08T03:34:33;6.07;;;2.90;;
51854;SDS011;37895;53.240;6.572;2023-08-08T03:37:01;5.45;;;2.80;;
51854;SDS011;37895;53.240;6.572;2023-08-08T03:39:27;6.25;;;2.40;;
51854;SDS011;37895;53.240;6.572;2023-08-08T03:41:53;7.72;;;2.72;;
51854;SDS011;37895;53.240;6.572;2023-08-08T03:44:18;8.73;;;2.80;;
51854;SDS011;37895;53.240;6.572;2023-08-08T03:46:44;6.43;;;2.90;;
51854;SDS011;37895;53.240;6.572;2023-08-08T03:49:09;32.08;;;3.67;;
51854;SDS011;37895;53.240;6.572;2023-08-08T03:51:35;8.30;;;2.90;;
51854;SDS011;37895;53.240;6.572;2023-08-08T03:54:01;6.90;;;2.75;;
51854;SDS011;37895;53.240;6.572;2023-08-08T03:56:27;6.32;;;3.10;;
51854;SDS011;37895;53.240;6.572;2023-08-08T03:58:53;5.20;;;2.33;;
51854;SDS011;37895;53.240;6.572;2023-08-08T04:01:19;6.88;;;2.83;;
51854;SDS011;37895;53.240;6.572;2023-08-08T04:03:44;4.40;;;2.33;;
51854;SDS011;37895;53.240;6.572;2023-08-08T04:06:10;5.93;;;2.30;;
51854;SDS011;37895;53.240;6.572;2023-08-08T04:08:36;4.43;;;2.22;;
51854;SDS011;37895;53.240;6.572;2023-08-08T04:11:01;5.43;;;2.50;;
51854;SDS011;37895;53.240;6.572;2023-08-08T04:13:27;5.47;;;2.70;;
51854;SDS011;37895;53.240;6.572;2023-08-08T04:15:53;3.30;;;2.05;;
51854;SDS011;37895;53.240;6.572;2023-08-08T04:18:18;6.88;;;2.47;;
51854;SDS011;37895;53.240;6.572;2023-08-08T04:20:45;4.15;;;2.33;;
51854;SDS011;37895;53.240;6.572;2023-08-08T04:23:12;6.03;;;2.42;;
51854;SDS011;37895;53.240;6.572;2023-08-08T04:25:38;5.60;;;2.70;;
51854;SDS011;37895;53.240;6.572;2023-08-08T04:28:04;6.00;;;2.65;;
51854;SDS011;37895;53.240;6.572;2023-08-08T04:30:29;4.85;;;2.30;;
51854;SDS011;37895;53.240;6.572;2023-08-08T04:32:55;4.70;;;2.53;;
51854;SDS011;37895;53.240;6.572;2023-08-08T04:35:21;6.03;;;2.25;;
51854;SDS011;37895;53.240;6.572;2023-08-08T04:37:46;7.85;;;2.60;;
51854;SDS011;37895;53.240;6.572;2023-08-08T04:40:12;5.03;;;2.53;;
51854;SDS011;37895;53.240;6.572;2023-08-08T04:42:38;5.15;;;2.28;;
51854;SDS011;37895;53.240;6.572;2023-08-08T04:45:04;6.93;;;3.08;;
51854;SDS011;37895;53.240;6.572;2023-08-08T04:49:55;5.03;;;2.50;;
51854;SDS011;37895;53.240;6.572;2023-08-08T04:52:21;4.78;;;2.10;;
51854;SDS011;37895;53.240;6.572;2023-08-08T04:54:47;4.75;;;1.98;;
51854;SDS011;37895;53.240;6.572;2023-08-08T04:57:12;5.07;;;2.60;;
51854;SDS011;37895;53.240;6.572;2023-08-08T04:59:38;6.70;;;2.95;;
51854;SDS011;37895;53.240;6.572;2023-08-08T05:02:04;6.30;;;2.50;;
51854;SDS011;37895;53.240;6.572;2023-08-08T05:04:30;5.60;;;2.45;;
51854;SDS011;37895;53.240;6.572;2023-08-08T05:06:56;5.57;;;2.30;;
51854;SDS011;37895;53.240;6.572;2023-08-08T05:09:22;5.95;;;2.42;;
51854;SDS011;37895;53.240;6.572;2023-08-08T05:11:51;7.78;;;2.60;;
51854;SDS011;37895;53.240;6.572;2023-08-08T05:16:43;6.22;;;2.33;;
51854;SDS011;37895;53.240;6.572;2023-08-08T05:19:08;6.25;;;2.30;;
51854;SDS011;37895;53.240;6.572;2023-08-08T05:21:34;6.05;;;2.30;;
51854;SDS011;37895;53.240;6.572;2023-08-08T05:24:00;5.53;;;2.60;;
51854;SDS011;37895;53.240;6.572;2023-08-08T05:26:25;7.97;;;2.50;;
51854;SDS011;37895;53.240;6.572;2023-08-08T05:28:51;6.60;;;2.20;;
51854;SDS011;37895;53.240;6.572;2023-08-08T05:31:17;8.95;;;2.42;;
51854;SDS011;37895;53.240;6.572;2023-08-08T05:33:42;5.95;;;2.17;;
51854;SDS011;37895;53.240;6.572;2023-08-08T05:36:08;4.22;;;2.10;;
51854;SDS011;37895;53.240;6.572;2023-08-08T05:38:34;9.23;;;2.65;;
51854;SDS011;37895;53.240;6.572;2023-08-08T05:40:59;7.22;;;2.70;;
51854;SDS011;37895;53.240;6.572;2023-08-08T05:43:25;6.25;;;2.30;;
51854;SDS011;37895;53.240;6.572;2023-08-08T05:45:52;8.88;;;2.78;;
51854;SDS011;37895;53.240;6.572;2023-08-08T05:48:18;7.88;;;2.97;;
51854;SDS011;37895;53.240;6.572;2023-08-08T05:50:44;4.65;;;2.45;;
51854;SDS011;37895;53.240;6.572;2023-08-08T05:53:09;4.20;;;1.98;;
51854;SDS011;37895;53.240;6.572;2023-08-08T05:55:35;5.63;;;2.38;;
51854;SDS011;37895;53.240;6.572;2023-08-08T05:58:01;5.70;;;2.40;;
51854;SDS011;37895;53.240;6.572;2023-08-08T06:00:26;7.60;;;2.30;;
51854;SDS011;37895;53.240;6.572;2023-08-08T06:02:52;6.32;;;2.10;;
51854;SDS011;37895;53.240;6.572;2023-08-08T06:05:18;5.63;;;2.15;;
51854;SDS011;37895;53.240;6.572;2023-08-08T06:07:46;7.13;;;2.17;;
51854;SDS011;37895;53.240;6.572;2023-08-08T06:10:12;9.10;;;2.60;;
51854;SDS011;37895;53.240;6.572;2023-08-08T06:12:37;6.32;;;2.55;;
51854;SDS011;37895;53.240;6.572;2023-08-08T06:15:03;7.30;;;2.33;;
51854;SDS011;37895;53.240;6.572;2023-08-08T06:17:29;10.70;;;2.58;;
51854;SDS011;37895;53.240;6.572;2023-08-08T06:19:55;5.65;;;2.45;;
51854;SDS011;37895;53.240;6.572;2023-08-08T06:22:22;4.50;;;2.40;;
51854;SDS011;37895;53.240;6.572;2023-08-08T06:24:48;8.63;;;2.78;;
51854;SDS011;37895;53.240;6.572;2023-08-08T06:27:14;6.50;;;2.00;;
51854;SDS011;37895;53.240;6.572;2023-08-08T06:29:39;4.70;;;2.03;;
51854;SDS011;37895;53.240;6.572;2023-08-08T06:32:05;8.02;;;2.15;;
51854;SDS011;37895;53.240;6.572;2023-08-08T06:34:31;5.25;;;2.33;;
51854;SDS011;37895;53.240;6.572;2023-08-08T06:36:57;6.65;;;2.22;;
51854;SDS011;37895;53.240;6.572;2023-08-08T06:39:22;4.93;;;2.15;;
51854;SDS011;37895;53.240;6.572;2023-08-08T06:41:48;6.68;;;2.35;;
51854;SDS011;37895;53.240;6.572;2023-08-08T06:44:14;5.07;;;1.92;;
51854;SDS011;37895;53.240;6.572;2023-08-08T06:46:39;5.38;;;2.20;;
51854;SDS011;37895;53.240;6.572;2023-08-08T06:49:06;5.43;;;1.90;;
51854;SDS011;37895;53.240;6.572;2023-08-08T06:51:33;10.20;;;2.00;;
51854;SDS011;37895;53.240;6.572;2023-08-08T06:53:59;6.55;;;2.05;;
51854;SDS011;37895;53.240;6.572;2023-08-08T06:56:25;5.95;;;2.17;;
51854;SDS011;37895;53.240;6.572;2023-08-08T06:58:53;8.05;;;2.22;;
51854;SDS011;37895;53.240;6.572;2023-08-08T07:01:19;5.78;;;1.90;;
51854;SDS011;37895;53.240;6.572;2023-08-08T07:03:44;5.93;;;2.10;;
51854;SDS011;37895;53.240;6.572;2023-08-08T07:06:11;5.18;;;1.80;;
51854;SDS011;37895;53.240;6.572;2023-08-08T07:08:37;8.23;;;2.10;;
51854;SDS011;37895;53.240;6.572;2023-08-08T07:11:04;7.43;;;2.25;;
51854;SDS011;37895;53.240;6.572;2023-08-08T07:13:31;8.65;;;2.22;;
51854;SDS011;37895;53.240;6.572;2023-08-08T07:15:56;8.73;;;2.20;;
51854;SDS011;37895;53.240;6.572;2023-08-08T07:18:22;5.57;;;1.83;;
51854;SDS011;37895;53.240;6.572;2023-08-08T07:20:48;8.02;;;2.47;;
51854;SDS011;37895;53.240;6.572;2023-08-08T07:23:14;6.57;;;1.90;;
51854;SDS011;37895;53.240;6.572;2023-08-08T07:25:41;7.78;;;2.30;;
51854;SDS011;37895;53.240;6.572;2023-08-08T07:28:07;5.70;;;2.00;;
51854;SDS011;37895;53.240;6.572;2023-08-08T07:30:33;5.78;;;1.85;;
51854;SDS011;37895;53.240;6.572;2023-08-08T07:32:59;9.13;;;2.28;;
51854;SDS011;37895;53.240;6.572;2023-08-08T07:35:25;4.93;;;1.90;;
51854;SDS011;37895;53.240;6.572;2023-08-08T07:37:50;6.93;;;2.10;;
51854;SDS011;37895;53.240;6.572;2023-08-08T07:40:16;5.22;;;1.70;;
51854;SDS011;37895;53.240;6.572;2023-08-08T07:42:43;5.35;;;1.80;;
51854;SDS011;37895;53.240;6.572;2023-08-08T07:45:10;7.53;;;1.88;;
51854;SDS011;37895;53.240;6.572;2023-08-08T07:47:36;5.43;;;1.58;;
51854;SDS011;37895;53.240;6.572;2023-08-08T07:50:01;6.68;;;1.55;;
51854;SDS011;37895;53.240;6.572;2023-08-08T07:52:27;5.95;;;2.00;;
51854;SDS011;37895;53.240;6.572;2023-08-08T07:54:53;7.03;;;1.90;;
51854;SDS011;37895;53.240;6.572;2023-08-08T07:57:18;7.88;;;1.98;;
51854;SDS011;37895;53.240;6.572;2023-08-08T07:59:44;5.15;;;1.90;;
51854;SDS011;37895;53.240;6.572;2023-08-08T08:02:10;5.45;;;1.73;;
51854;SDS011;37895;53.240;6.572;2023-08-08T08:04:35;3.47;;;1.83;;
51854;SDS011;37895;53.240;6.572;2023-08-08T08:07:01;5.57;;;1.83;;
51854;SDS011;37895;53.240;6.572;2023-08-08T08:09:27;6.53;;;1.60;;
51854;SDS011;37895;53.240;6.572;2023-08-08T08:14:19;8.40;;;1.55;;
51854;SDS011;37895;53.240;6.572;2023-08-08T08:16:46;4.30;;;1.55;;
51854;SDS011;37895;53.240;6.572;2023-08-08T08:19:12;5.95;;;1.80;;
51854;SDS011;37895;53.240;6.572;2023-08-08T08:21:37;6.60;;;2.20;;
51854;SDS011;37895;53.240;6.572;2023-08-08T08:24:03;5.05;;;1.73;;
51854;SDS011;37895;53.240;6.572;2023-08-08T08:26:29;6.50;;;1.60;;
51854;SDS011;37895;53.240;6.572;2023-08-08T08:28:55;6.95;;;1.90;;
51854;SDS011;37895;53.240;6.572;2023-08-08T08:31:20;8.13;;;1.85;;
51854;SDS011;37895;53.240;6.572;2023-08-08T08:33:46;5.03;;;1.90;;
51854;SDS011;37895;53.240;6.572;2023-08-08T08:36:12;6.50;;;2.33;;
51854;SDS011;37895;53.240;6.572;2023-08-08T08:41:03;9.10;;;1.88;;
51854;SDS011;37895;53.240;6.572;2023-08-08T08:45:59;8.05;;;1.95;;
51854;SDS011;37895;53.240;6.572;2023-08-08T08:48:27;9.30;;;1.80;;
51854;SDS011;37895;53.240;6.572;2023-08-08T08:50:53;7.65;;;2.00;;
51854;SDS011;37895;53.240;6.572;2023-08-08T08:53:19;6.97;;;2.00;;
51854;SDS011;37895;53.240;6.572;2023-08-08T08:55:45;8.90;;;2.67;;
51854;SDS011;37895;53.240;6.572;2023-08-08T08:58:13;7.13;;;1.63;;
51854;SDS011;37895;53.240;6.572;2023-08-08T09:00:41;3.75;;;1.48;;
51854;SDS011;37895;53.240;6.572;2023-08-08T09:03:10;5.03;;;1.58;;
51854;SDS011;37895;53.240;6.572;2023-08-08T09:05:36;5.50;;;1.88;;
51854;SDS011;37895;53.240;6.572;2023-08-08T09:08:05;5.43;;;1.60;;
51854;SDS011;37895;53.240;6.572;2023-08-08T09:10:31;4.95;;;1.67;;
51854;SDS011;37895;53.240;6.572;2023-08-08T09:15:23;9.50;;;2.35;;
51854;SDS011;37895;53.240;6.572;2023-08-08T09:17:48;5.40;;;1.52;;
51854;SDS011;37895;53.240;6.572;2023-08-08T09:20:14;4.68;;;1.73;;
51854;SDS011;37895;53.240;6.572;2023-08-08T09:22:41;6.65;;;1.50;;
51854;SDS011;37895;53.240;6.572;2023-08-08T09:25:07;7.00;;;1.77;;
51854;SDS011;37895;53.240;6.572;2023-08-08T09:27:33;11.38;;;2.13;;
51854;SDS011;37895;53.240;6.572;2023-08-08T09:30:00;5.30;;;1.50;;
51854;SDS011;37895;53.240;6.572;2023-08-08T09:32:29;4.63;;;1.90;;
51854;SDS011;37895;53.240;6.572;2023-08-08T09:34:56;8.32;;;1.80;;
51854;SDS011;37895;53.240;6.572;2023-08-08T09:37:22;7.90;;;1.70;;
51854;SDS011;37895;53.240;6.572;2023-08-08T09:39:58;4.30;;;1.65;;
51854;SDS011;37895;53.240;6.572;2023-08-08T09:42:28;4.32;;;1.30;;
51854;SDS011;37895;53.240;6.572;2023-08-08T09:44:55;5.45;;;1.95;;
51854;SDS011;37895;53.240;6.572;2023-08-08T09:47:21;3.97;;;1.70;;
51854;SDS011;37895;53.240;6.572;2023-08-08T09:49:47;4.95;;;1.95;;
51854;SDS011;37895;53.240;6.572;2023-08-08T09:52:14;4.88;;;1.30;;
51854;SDS011;37895;53.240;6.572;2023-08-08T09:54:41;5.70;;;1.70;;
51854;SDS011;37895;53.240;6.572;2023-08-08T09:57:07;4.05;;;1.70;;
51854;SDS011;37895;53.240;6.572;2023-08-08T09:59:33;4.85;;;1.42;;
51854;SDS011;37895;53.240;6.572;2023-08-08T10:02:00;6.78;;;1.50;;
51854;SDS011;37895;53.240;6.572;2023-08-08T10:04:26;2.97;;;1.30;;
51854;SDS011;37895;53.240;6.572;2023-08-08T10:06:53;4.60;;;1.50;;
51854;SDS011;37895;53.240;6.572;2023-08-08T10:09:18;4.72;;;1.80;;
51854;SDS011;37895;53.240;6.572;2023-08-08T10:14:11;5.07;;;1.52;;
51854;SDS011;37895;53.240;6.572;2023-08-08T10:16:37;7.55;;;1.60;;
51854;SDS011;37895;53.240;6.572;2023-08-08T10:19:03;3.85;;;1.80;;
51854;SDS011;37895;53.240;6.572;2023-08-08T10:21:34;6.50;;;1.80;;
51854;SDS011;37895;53.240;6.572;2023-08-08T10:24:02;6.65;;;2.60;;
51854;SDS011;37895;53.240;6.572;2023-08-08T10:26:29;7.03;;;2.10;;
51854;SDS011;37895;53.240;6.572;2023-08-08T10:28:55;4.75;;;1.67;;
51854;SDS011;37895;53.240;6.572;2023-08-08T10:31:21;8.10;;;1.85;;
51854;SDS011;37895;53.240;6.572;2023-08-08T10:33:47;6.60;;;2.22;;
51854;SDS011;37895;53.240;6.572;2023-08-08T10:36:14;8.35;;;2.20;;
51854;SDS011;37895;53.240;6.572;2023-08-08T10:41:15;5.00;;;1.65;;
51854;SDS011;37895;53.240;6.572;2023-08-08T10:43:47;4.63;;;1.83;;
51854;SDS011;37895;53.240;6.572;2023-08-08T10:46:14;6.40;;;2.35;;
51854;SDS011;37895;53.240;6.572;2023-08-08T10:48:51;4.45;;;2.03;;
51854;SDS011;37895;53.240;6.572;2023-08-08T10:53:58;6.65;;;2.00;;
51854;SDS011;37895;53.240;6.572;2023-08-08T10:56:29;4.85;;;1.90;;
51854;SDS011;37895;53.240;6.572;2023-08-08T10:58:56;5.55;;;1.60;;
51854;SDS011;37895;53.240;6.572;2023-08-08T11:01:25;5.53;;;1.73;;
51854;SDS011;37895;53.240;6.572;2023-08-08T11:03:51;5.38;;;1.80;;
51854;SDS011;37895;53.240;6.572;2023-08-08T11:06:20;7.30;;;2.45;;
51854;SDS011;37895;53.240;6.572;2023-08-08T11:08:46;5.47;;;1.60;;
51854;SDS011;37895;53.240;6.572;2023-08-08T11:11:11;4.07;;;1.40;;
51854;SDS011;37895;53.240;6.572;2023-08-08T11:13:37;5.30;;;1.33;;
51854;SDS011;37895;53.240;6.572;2023-08-08T11:16:03;3.90;;;1.30;;
51854;SDS011;37895;53.240;6.572;2023-08-08T11:18:29;5.72;;;2.08;;
51854;SDS011;37895;53.240;6.572;2023-08-08T11:20:54;5.55;;;1.38;;
51854;SDS011;37895;53.240;6.572;2023-08-08T11:23:20;8.95;;;1.83;;
51854;SDS011;37895;53.240;6.572;2023-08-08T11:25:47;7.32;;;1.73;;
51854;SDS011;37895;53.240;6.572;2023-08-08T11:28:14;5.20;;;1.80;;
51854;SDS011;37895;53.240;6.572;2023-08-08T11:30:45;13.35;;;2.15;;
51854;SDS011;37895;53.240;6.572;2023-08-08T11:33:13;4.57;;;1.60;;
51854;SDS011;37895;53.240;6.572;2023-08-08T11:35:44;6.47;;;1.42;;
51854;SDS011;37895;53.240;6.572;2023-08-08T11:38:14;4.85;;;1.70;;
51854;SDS011;37895;53.240;6.572;2023-08-08T11:40:40;4.55;;;1.45;;
51854;SDS011;37895;53.240;6.572;2023-08-08T11:43:06;8.90;;;1.85;;
51854;SDS011;37895;53.240;6.572;2023-08-08T11:45:32;3.72;;;1.40;;
51854;SDS011;37895;53.240;6.572;2023-08-08T11:47:59;5.47;;;1.48;;
51854;SDS011;37895;53.240;6.572;2023-08-08T11:50:25;4.72;;;1.33;;
51854;SDS011;37895;53.240;6.572;2023-08-08T11:52:52;5.25;;;1.80;;
51854;SDS011;37895;53.240;6.572;2023-08-08T11:55:19;2.72;;;1.17;;
51854;SDS011;37895;53.240;6.572;2023-08-08T11:57:47;5.65;;;1.55;;
51854;SDS011;37895;53.240;6.572;2023-08-08T12:00:13;6.10;;;1.75;;
51854;SDS011;37895;53.240;6.572;2023-08-08T12:05:07;4.65;;;1.35;;
51854;SDS011;37895;53.240;6.572;2023-08-08T12:07:37;7.03;;;1.60;;
51854;SDS011;37895;53.240;6.572;2023-08-08T12:10:13;4.45;;;1.67;;
51854;SDS011;37895;53.240;6.572;2023-08-08T12:12:41;5.22;;;1.52;;
51854;SDS011;37895;53.240;6.572;2023-08-08T12:15:07;6.72;;;1.63;;
51854;SDS011;37895;53.240;6.572;2023-08-08T12:17:36;7.10;;;1.88;;
51854;SDS011;37895;53.240;6.572;2023-08-08T12:20:06;7.50;;;1.70;;
51854;SDS011;37895;53.240;6.572;2023-08-08T12:22:34;6.18;;;2.35;;
51854;SDS011;37895;53.240;6.572;2023-08-08T12:25:00;4.90;;;1.48;;
51854;SDS011;37895;53.240;6.572;2023-08-08T12:27:26;6.22;;;1.65;;
51854;SDS011;37895;53.240;6.572;2023-08-08T12:29:51;5.38;;;1.70;;
51854;SDS011;37895;53.240;6.572;2023-08-08T12:32:20;3.70;;;1.60;;
51854;SDS011;37895;53.240;6.572;2023-08-08T12:34:48;9.70;;;1.70;;
51854;SDS011;37895;53.240;6.572;2023-08-08T12:37:14;4.35;;;1.67;;
51854;SDS011;37895;53.240;6.572;2023-08-08T12:39:40;7.35;;;1.83;;
51854;SDS011;37895;53.240;6.572;2023-08-08T12:42:06;4.40;;;1.35;;
51854;SDS011;37895;53.240;6.572;2023-08-08T12:44:31;7.78;;;2.00;;
51854;SDS011;37895;53.240;6.572;2023-08-08T12:46:57;8.77;;;1.83;;
51854;SDS011;37895;53.240;6.572;2023-08-08T12:49:23;5.72;;;1.88;;
51854;SDS011;37895;53.240;6.572;2023-08-08T12:51:49;5.68;;;1.55;;
51854;SDS011;37895;53.240;6.572;2023-08-08T12:54:15;15.98;;;1.95;;
51854;SDS011;37895;53.240;6.572;2023-08-08T12:56:41;7.28;;;1.52;;
51854;SDS011;37895;53.240;6.572;2023-08-08T12:59:07;5.22;;;1.70;;
51854;SDS011;37895;53.240;6.572;2023-08-08T13:01:34;4.57;;;1.40;;
51854;SDS011;37895;53.240;6.572;2023-08-08T13:03:59;7.60;;;1.75;;
51854;SDS011;37895;53.240;6.572;2023-08-08T13:06:25;5.25;;;1.70;;
51854;SDS011;37895;53.240;6.572;2023-08-08T13:08:50;4.68;;;1.73;;
51854;SDS011;37895;53.240;6.572;2023-08-08T13:11:16;5.57;;;1.55;;
51854;SDS011;37895;53.240;6.572;2023-08-08T13:13:42;4.70;;;1.70;;
51854;SDS011;37895;53.240;6.572;2023-08-08T13:16:07;7.20;;;2.03;;
51854;SDS011;37895;53.240;6.572;2023-08-08T13:18:33;5.47;;;1.65;;
51854;SDS011;37895;53.240;6.572;2023-08-08T13:20:58;5.93;;;1.60;;
51854;SDS011;37895;53.240;6.572;2023-08-08T13:23:24;6.05;;;1.88;;
51854;SDS011;37895;53.240;6.572;2023-08-08T13:25:50;7.35;;;1.55;;
51854;SDS011;37895;53.240;6.572;2023-08-08T13:28:16;5.28;;;1.70;;
51854;SDS011;37895;53.240;6.572;2023-08-08T13:30:42;6.13;;;2.03;;
51854;SDS011;37895;53.240;6.572;2023-08-08T13:35:34;8.63;;;1.60;;
51854;SDS011;37895;53.240;6.572;2023-08-08T13:37:59;6.20;;;1.85;;
51854;SDS011;37895;53.240;6.572;2023-08-08T13:40:25;3.83;;;1.67;;
51854;SDS011;37895;53.240;6.572;2023-08-08T13:42:51;6.97;;;1.95;;
51854;SDS011;37895;53.240;6.572;2023-08-08T13:45:19;6.82;;;1.70;;
51854;SDS011;37895;53.240;6.572;2023-08-08T13:47:46;4.85;;;1.60;;
51854;SDS011;37895;53.240;6.572;2023-08-08T13:52:38;8.63;;;1.60;;
51854;SDS011;37895;53.240;6.572;2023-08-08T13:55:05;5.05;;;1.50;;
51854;SDS011;37895;53.240;6.572;2023-08-08T13:57:32;5.55;;;1.65;;
51854;SDS011;37895;53.240;6.572;2023-08-08T13:59:57;7.18;;;1.75;;
51854;SDS011;37895;53.240;6.572;2023-08-08T14:02:23;7.50;;;1.83;;
51854;SDS011;37895;53.240;6.572;2023-08-08T14:04:48;8.73;;;1.83;;
51854;SDS011;37895;53.240;6.572;2023-08-08T14:07:14;4.90;;;1.38;;
51854;SDS011;37895;53.240;6.572;2023-08-08T14:09:40;7.72;;;1.67;;
51854;SDS011;37895;53.240;6.572;2023-08-08T14:12:05;7.55;;;1.80;;
51854;SDS011;37895;53.240;6.572;2023-08-08T14:14:31;6.78;;;1.77;;
51854;SDS011;37895;53.240;6.572;2023-08-08T14:16:57;6.03;;;1.67;;
51854;SDS011;37895;53.240;6.572;2023-08-08T14:19:23;4.93;;;1.40;;
51854;SDS011;37895;53.240;6.572;2023-08-08T14:21:49;5.03;;;1.58;;
51854;SDS011;37895;53.240;6.572;2023-08-08T14:24:14;4.03;;;1.40;;
51854;SDS011;37895;53.240;6.572;2023-08-08T14:26:40;6.32;;;1.70;;
51854;SDS011;37895;53.240;6.572;2023-08-08T14:29:06;4.45;;;1.60;;
51854;SDS011;37895;53.240;6.572;2023-08-08T14:31:31;4.10;;;1.70;;
51854;SDS011;37895;53.240;6.572;2023-08-08T14:33:57;4.50;;;1.40;;
51854;SDS011;37895;53.240;6.572;2023-08-08T14:36:22;16.85;;;2.45;;
51854;SDS011;37895;53.240;6.572;2023-08-08T14:38:48;5.28;;;1.70;;
51854;SDS011;37895;53.240;6.572;2023-08-08T14:41:14;5.50;;;1.58;;
51854;SDS011;37895;53.240;6.572;2023-08-08T14:43:39;8.90;;;2.08;;
51854;SDS011;37895;53.240;6.572;2023-08-08T14:46:05;6.82;;;1.92;;
51854;SDS011;37895;53.240;6.572;2023-08-08T14:48:31;7.22;;;1.63;;
51854;SDS011;37895;53.240;6.572;2023-08-08T14:50:56;6.10;;;1.48;;
51854;SDS011;37895;53.240;6.572;2023-08-08T14:53:24;5.85;;;1.40;;
51854;SDS011;37895;53.240;6.572;2023-08-08T14:55:50;5.78;;;1.65;;
51854;SDS011;37895;53.240;6.572;2023-08-08T14:58:16;3.63;;;1.40;;
51854;SDS011;37895;53.240;6.572;2023-08-08T15:00:41;7.93;;;1.40;;
51854;SDS011;37895;53.240;6.572;2023-08-08T15:03:07;6.38;;;1.48;;
51854;SDS011;37895;53.240;6.572;2023-08-08T15:05:33;5.72;;;1.60;;
51854;SDS011;37895;53.240;6.572;2023-08-08T15:07:59;9.25;;;2.03;;
51854;SDS011;37895;53.240;6.572;2023-08-08T15:10:24;7.60;;;1.80;;
51854;SDS011;37895;53.240;6.572;2023-08-08T15:12:50;4.97;;;1.40;;
51854;SDS011;37895;53.240;6.572;2023-08-08T15:15:16;4.22;;;1.52;;
51854;SDS011;37895;53.240;6.572;2023-08-08T15:17:45;5.30;;;1.60;;
51854;SDS011;37895;53.240;6.572;2023-08-08T15:20:10;5.30;;;1.70;;
51854;SDS011;37895;53.240;6.572;2023-08-08T15:22:36;8.05;;;1.80;;
51854;SDS011;37895;53.240;6.572;2023-08-08T15:25:02;6.03;;;1.70;;
51854;SDS011;37895;53.240;6.572;2023-08-08T15:27:29;5.53;;;1.65;;
51854;SDS011;37895;53.240;6.572;2023-08-08T15:29:54;7.22;;;1.92;;
51854;SDS011;37895;53.240;6.572;2023-08-08T15:32:20;6.53;;;2.05;;
51854;SDS011;37895;53.240;6.572;2023-08-08T15:34:46;6.80;;;1.58;;
51854;SDS011;37895;53.240;6.572;2023-08-08T15:37:11;5.28;;;1.67;;
51854;SDS011;37895;53.240;6.572;2023-08-08T15:39:38;7.00;;;1.88;;
51854;SDS011;37895;53.240;6.572;2023-08-08T15:42:04;4.72;;;1.60;;